createdAt,value
2018-03-18T00:00:46.011Z,70.81
2018-03-18T00:01:45.974Z,70.9
2018-03-18T00:02:45.941Z,70.24
2018-03-18T00:03:45.903Z,70.43
2018-03-18T00:04:45.873Z,70.53
2018-03-18T00:05:45.836Z,70.34
2018-03-18T00:06:45.802Z,70.43
2018-03-18T00:07:45.768Z,70.43
2018-03-18T00:08:45.732Z,70.53
2018-03-18T00:09:45.698Z,70.53
2018-03-18T00:10:45.665Z,69.86
2018-03-18T00:11:45.381Z,69.96
2018-03-18T00:12:45.591Z,69.96
2018-03-18T00:13:45.569Z,69.96
2018-03-18T00:14:45.525Z,69.96
2018-03-18T00:15:45.492Z,69.96
2018-03-18T00:16:45.229Z,69.96
2018-03-18T00:17:45.424Z,70.05
2018-03-18T00:18:45.391Z,70.05
2018-03-18T00:19:45.353Z,69.58
2018-03-18T00:20:45.323Z,69.58
2018-03-18T00:21:45.285Z,69.58
2018-03-18T00:22:45.267Z,69.58
2018-03-18T00:23:45.213Z,69.86
2018-03-18T00:24:45.184Z,69.39
2018-03-18T00:25:45.145Z,69.77
2018-03-18T00:26:45.110Z,69.77
2018-03-18T00:27:44.826Z,69.39
2018-03-18T00:28:45.043Z,69.39
2018-03-18T00:29:45.013Z,69.58
2018-03-18T00:30:44.976Z,69.3
2018-03-18T00:31:44.936Z,69.2
2018-03-18T00:32:44.905Z,69.11
2018-03-18T00:33:44.869Z,69.39
2018-03-18T00:34:44.838Z,69.2
2018-03-18T00:35:44.802Z,69.2
2018-03-18T00:36:44.763Z,69.11
2018-03-18T00:37:44.726Z,69.2
2018-03-18T00:38:44.694Z,69.2
2018-03-18T00:39:44.661Z,68.73
2018-03-18T00:40:44.628Z,69.11
2018-03-18T00:41:44.591Z,68.07
2018-03-18T00:42:44.556Z,68.26
2018-03-18T00:43:44.519Z,68.54
2018-03-18T00:44:44.500Z,68.54
2018-03-18T00:45:44.453Z,68.44
2018-03-18T00:46:44.418Z,68.16
2018-03-18T00:47:44.135Z,68.16
2018-03-18T00:48:44.356Z,68.35
2018-03-18T00:49:44.314Z,68.35
2018-03-18T00:50:44.280Z,68.54
2018-03-18T00:51:44.253Z,68.63
2018-03-18T00:52:44.210Z,68.44
2018-03-18T00:53:44.175Z,68.26
2018-03-18T00:54:44.144Z,68.26
2018-03-18T00:55:44.108Z,68.35
2018-03-18T00:56:43.822Z,68.63
2018-03-18T00:57:44.036Z,68.54
2018-03-18T00:58:44.002Z,68.63
2018-03-18T00:59:43.967Z,68.63
2018-03-18T01:00:43.934Z,68.54
2018-03-18T01:01:43.904Z,68.63
2018-03-18T01:02:43.614Z,68.44
2018-03-18T01:03:43.829Z,68.16
2018-03-18T01:04:43.814Z,68.07
2018-03-18T01:05:43.761Z,68.26
2018-03-18T01:06:43.726Z,67.41
2018-03-18T01:07:43.693Z,67.69
2018-03-18T01:08:43.656Z,67.79
2018-03-18T01:09:43.623Z,68.16
2018-03-18T01:10:43.595Z,67.88
2018-03-18T01:11:43.548Z,67.88
2018-03-18T01:12:43.566Z,67.32
2018-03-18T01:13:43.235Z,67.13
2018-03-18T01:14:43.446Z,67.32
2018-03-18T01:15:43.414Z,67.32
2018-03-18T01:16:43.377Z,67.32
2018-03-18T01:17:43.094Z,67.32
2018-03-18T01:18:43.307Z,67.32
2018-03-18T01:19:43.276Z,67.13
2018-03-18T01:20:43.285Z,67.13
2018-03-18T01:21:43.206Z,67.32
2018-03-18T01:22:42.922Z,67.22
2018-03-18T01:23:43.136Z,66.94
2018-03-18T01:24:43.106Z,67.22
2018-03-18T01:25:43.065Z,66.94
2018-03-18T01:26:42.783Z,66.84
2018-03-18T01:27:42.995Z,67.13
2018-03-18T01:28:42.964Z,67.22
2018-03-18T01:29:42.928Z,67.22
2018-03-18T01:30:42.889Z,67.13
2018-03-18T01:31:42.861Z,67.13
2018-03-18T01:32:42.824Z,67.13
2018-03-18T01:33:42.790Z,67.13
2018-03-18T01:34:42.753Z,67.13
2018-03-18T01:35:42.718Z,67.03
2018-03-18T01:36:42.681Z,67.13
2018-03-18T01:37:42.646Z,67.03
2018-03-18T01:38:42.616Z,66.56
2018-03-18T01:39:42.595Z,66.37
2018-03-18T01:40:42.551Z,66.75
2018-03-18T01:41:42.510Z,66.56
2018-03-18T01:42:42.480Z,66.56
2018-03-18T01:43:42.462Z,66.56
2018-03-18T01:44:42.403Z,66.56
2018-03-18T01:45:42.371Z,66.65
2018-03-18T01:46:42.333Z,67.13
2018-03-18T01:47:42.310Z,67.13
2018-03-18T01:48:42.269Z,66.84
2018-03-18T01:49:41.984Z,67.13
2018-03-18T01:50:42.200Z,66.84
2018-03-18T01:51:42.159Z,67.13
2018-03-18T01:52:42.129Z,66.65
2018-03-18T01:53:42.098Z,66.47
2018-03-18T01:54:42.071Z,66.56
2018-03-18T01:55:42.023Z,66.56
2018-03-18T01:56:41.990Z,66.47
2018-03-18T01:57:41.952Z,66.47
2018-03-18T01:58:41.920Z,66.84
2018-03-18T01:59:41.882Z,66.47
2018-03-18T02:00:41.850Z,66.65
2018-03-18T02:01:41.827Z,66.94
2018-03-18T02:02:41.777Z,66.65
2018-03-18T02:03:41.496Z,66.65
2018-03-18T02:04:41.712Z,67.03
2018-03-18T02:05:41.677Z,67.03
2018-03-18T02:06:41.642Z,67.13
2018-03-18T02:07:41.605Z,67.03
2018-03-18T02:08:41.573Z,67.22
2018-03-18T02:09:41.537Z,67.13
2018-03-18T02:10:41.498Z,66.84
2018-03-18T02:11:41.463Z,67.03
2018-03-18T02:12:41.181Z,67.22
2018-03-18T02:13:41.555Z,66.84
2018-03-18T02:14:41.421Z,67.03
2018-03-18T02:15:41.323Z,66.94
2018-03-18T02:16:41.290Z,66.84
2018-03-18T02:17:41.260Z,66.37
2018-03-18T02:18:41.221Z,66.37
2018-03-18T02:19:41.184Z,66.75
2018-03-18T02:20:41.152Z,66.56
2018-03-18T02:21:41.113Z,66.56
2018-03-18T02:22:41.078Z,66.94
2018-03-18T02:23:41.046Z,67.03
2018-03-18T02:24:41.011Z,66.84
2018-03-18T02:25:40.975Z,66.94
2018-03-18T02:26:40.946Z,66.94
2018-03-18T02:27:40.901Z,67.03
2018-03-18T02:28:40.869Z,66.65
2018-03-18T02:29:40.836Z,66.47
2018-03-18T02:30:40.800Z,66.65
2018-03-18T02:31:40.767Z,66.84
2018-03-18T02:32:40.733Z,66.47
2018-03-18T02:33:40.694Z,65.9
2018-03-18T02:34:40.666Z,66.09
2018-03-18T02:35:40.622Z,66.18
2018-03-18T02:36:40.597Z,65.9
2018-03-18T02:37:40.562Z,66.18
2018-03-18T02:38:40.519Z,66.09
2018-03-18T02:39:40.484Z,65.8
2018-03-18T02:40:40.451Z,66.37
2018-03-18T02:41:40.167Z,65.99
2018-03-18T02:42:40.382Z,66.18
2018-03-18T02:43:40.344Z,65.99
2018-03-18T02:44:40.312Z,66.65
2018-03-18T02:45:40.276Z,66.28
2018-03-18T02:46:40.252Z,66.47
2018-03-18T02:47:40.210Z,66.37
2018-03-18T02:48:39.922Z,66.18
2018-03-18T02:49:40.134Z,65.8
2018-03-18T02:50:40.099Z,66.18
2018-03-18T02:51:40.062Z,65.71
2018-03-18T02:52:40.031Z,65.71
2018-03-18T02:53:39.994Z,65.99
2018-03-18T02:54:40.060Z,65.9
2018-03-18T02:55:39.925Z,66.18
2018-03-18T02:56:39.888Z,66.28
2018-03-18T02:57:39.856Z,66.28
2018-03-18T02:58:39.818Z,66.18
2018-03-18T02:59:39.782Z,66.18
2018-03-18T03:00:39.770Z,65.99
2018-03-18T03:01:39.729Z,66.28
2018-03-18T03:02:39.677Z,66.09
2018-03-18T03:03:39.643Z,65.9
2018-03-18T03:04:39.356Z,66.28
2018-03-18T03:05:39.575Z,66.65
2018-03-18T03:06:39.540Z,66.18
2018-03-18T03:07:39.506Z,66.47
2018-03-18T03:08:39.219Z,66.37
2018-03-18T03:09:39.430Z,66.75
2018-03-18T03:10:39.398Z,66.65
2018-03-18T03:11:39.364Z,66.84
2018-03-18T03:12:39.326Z,66.75
2018-03-18T03:13:39.044Z,66.75
2018-03-18T03:14:39.257Z,66.56
2018-03-18T03:15:38.975Z,66.47
2018-03-18T03:16:39.188Z,66.65
2018-03-18T03:17:39.150Z,66.65
2018-03-18T03:18:39.120Z,66.37
2018-03-18T03:19:39.082Z,66.37
2018-03-18T03:20:39.048Z,66.47
2018-03-18T03:21:39.018Z,66.75
2018-03-18T03:22:38.730Z,66.65
2018-03-18T03:23:38.693Z,66.75
2018-03-18T03:24:38.909Z,66.75
2018-03-18T03:25:38.871Z,66.65
2018-03-18T03:26:38.838Z,66.75
2018-03-18T03:27:38.801Z,66.75
2018-03-18T03:28:38.520Z,66.65
2018-03-18T03:29:38.483Z,66.84
2018-03-18T03:30:38.705Z,66.75
2018-03-18T03:31:38.667Z,66.28
2018-03-18T03:32:38.637Z,66.47
2018-03-18T03:33:38.597Z,66.65
2018-03-18T03:34:38.556Z,66.18
2018-03-18T03:35:38.527Z,65.99
2018-03-18T03:36:38.487Z,66.18
2018-03-18T03:37:38.453Z,65.99
2018-03-18T03:38:38.419Z,66.28
2018-03-18T03:39:38.387Z,66.56
2018-03-18T03:40:38.350Z,66.75
2018-03-18T03:41:38.313Z,66.56
2018-03-18T03:42:38.030Z,66.56
2018-03-18T03:43:37.995Z,67.03
2018-03-18T03:44:38.208Z,66.94
2018-03-18T03:45:38.173Z,67.41
2018-03-18T03:46:38.139Z,67.13
2018-03-18T03:47:38.104Z,67.22
2018-03-18T03:48:38.068Z,67.41
2018-03-18T03:49:38.036Z,68.16
2018-03-18T03:50:38.001Z,67.6
2018-03-18T03:51:37.971Z,67.69
2018-03-18T03:52:37.930Z,67.6
2018-03-18T03:53:37.896Z,67.6
2018-03-18T03:54:37.861Z,67.79
2018-03-18T03:55:37.822Z,67.6
2018-03-18T03:56:37.790Z,67.69
2018-03-18T03:57:37.760Z,67.79
2018-03-18T03:58:37.721Z,67.69
2018-03-18T03:59:37.687Z,67.6
2018-03-18T04:00:37.648Z,67.6
2018-03-18T04:01:37.626Z,67.88
2018-03-18T04:02:37.577Z,67.88
2018-03-18T04:03:37.546Z,67.88
2018-03-18T04:04:37.511Z,67.79
2018-03-18T04:05:37.474Z,67.97
2018-03-18T04:06:37.440Z,67.69
2018-03-18T04:07:37.408Z,67.88
2018-03-18T04:08:37.124Z,67.97
2018-03-18T04:09:37.336Z,68.07
2018-03-18T04:10:37.302Z,67.6
2018-03-18T04:11:37.279Z,67.6
2018-03-18T04:12:37.232Z,67.6
2018-03-18T04:13:37.202Z,67.79
2018-03-18T04:14:37.160Z,67.6
2018-03-18T04:15:37.126Z,67.6
2018-03-18T04:16:37.090Z,67.79
2018-03-18T04:17:37.060Z,67.88
2018-03-18T04:18:37.022Z,67.88
2018-03-18T04:19:36.986Z,68.07
2018-03-18T04:20:36.952Z,67.69
2018-03-18T04:21:36.916Z,67.97
2018-03-18T04:22:36.879Z,67.88
2018-03-18T04:23:36.845Z,67.69
2018-03-18T04:24:36.812Z,67.79
2018-03-18T04:25:36.774Z,68.26
2018-03-18T04:26:36.740Z,68.26
2018-03-18T04:27:36.705Z,68.26
2018-03-18T04:28:36.672Z,68.07
2018-03-18T04:29:36.636Z,68.26
2018-03-18T04:30:36.599Z,67.79
2018-03-18T04:31:36.566Z,68.16
2018-03-18T04:32:36.531Z,68.16
2018-03-18T04:33:36.496Z,68.26
2018-03-18T04:34:36.462Z,68.35
2018-03-18T04:35:36.176Z,68.16
2018-03-18T04:36:36.396Z,68.07
2018-03-18T04:37:36.355Z,68.26
2018-03-18T04:38:36.074Z,68.16
2018-03-18T04:39:36.282Z,68.26
2018-03-18T04:40:36.254Z,68.35
2018-03-18T04:41:36.217Z,68.73
2018-03-18T04:42:36.180Z,68.63
2018-03-18T04:43:36.152Z,68.73
2018-03-18T04:44:36.110Z,68.54
2018-03-18T04:45:36.076Z,68.16
2018-03-18T04:46:36.044Z,68.63
2018-03-18T04:47:36.003Z,68.73
2018-03-18T04:48:35.968Z,68.73
2018-03-18T04:49:35.932Z,68.73
2018-03-18T04:50:35.898Z,68.82
2018-03-18T04:51:35.864Z,68.73
2018-03-18T04:52:35.834Z,68.44
2018-03-18T04:53:35.797Z,68.44
2018-03-18T04:54:35.758Z,68.63
2018-03-18T04:55:35.732Z,68.92
2018-03-18T04:56:35.687Z,68.35
2018-03-18T04:57:35.652Z,68.16
2018-03-18T04:58:35.617Z,68.16
2018-03-18T04:59:35.581Z,68.07
2018-03-18T05:00:35.546Z,67.97
2018-03-18T05:01:35.514Z,68.35
2018-03-18T05:02:35.482Z,68.07
2018-03-18T05:03:35.440Z,68.16
2018-03-18T05:04:35.412Z,67.97
2018-03-18T05:05:35.376Z,67.97
2018-03-18T05:06:35.338Z,67.88
2018-03-18T05:07:35.304Z,68.35
2018-03-18T05:08:35.267Z,68.07
2018-03-18T05:09:34.983Z,68.07
2018-03-18T05:10:35.196Z,68.07
2018-03-18T05:11:35.166Z,68.16
2018-03-18T05:12:35.127Z,68.07
2018-03-18T05:13:35.090Z,68.07
2018-03-18T05:14:35.055Z,67.97
2018-03-18T05:15:35.016Z,68.26
2018-03-18T05:16:35.052Z,68.16
2018-03-18T05:17:34.948Z,68.16
2018-03-18T05:18:34.914Z,67.97
2018-03-18T05:19:34.876Z,68.07
2018-03-18T05:20:34.843Z,68.07
2018-03-18T05:21:34.828Z,68.35
2018-03-18T05:22:34.772Z,68.26
2018-03-18T05:23:34.841Z,68.35
2018-03-18T05:24:34.454Z,68.16
2018-03-18T05:25:34.668Z,68.44
2018-03-18T05:26:34.633Z,68.54
2018-03-18T05:27:34.600Z,68.26
2018-03-18T05:28:34.561Z,68.82
2018-03-18T05:29:34.526Z,68.35
2018-03-18T05:30:34.494Z,68.44
2018-03-18T05:31:34.456Z,68.73
2018-03-18T05:32:34.424Z,68.54
2018-03-18T05:33:34.383Z,68.73
2018-03-18T05:34:34.101Z,68.73
2018-03-18T05:35:34.312Z,68.73
2018-03-18T05:36:34.034Z,68.26
2018-03-18T05:37:33.995Z,68.16
2018-03-18T05:38:33.959Z,68.26
2018-03-18T05:39:34.172Z,68.26
2018-03-18T05:40:34.136Z,68.35
2018-03-18T05:41:33.852Z,68.26
2018-03-18T05:42:33.819Z,68.16
2018-03-18T05:43:34.057Z,68.73
2018-03-18T05:44:33.995Z,68.07
2018-03-18T05:45:33.961Z,68.73
2018-03-18T05:46:33.926Z,68.16
2018-03-18T05:47:33.888Z,68.54
2018-03-18T05:48:33.856Z,68.63
2018-03-18T05:49:33.821Z,68.35
2018-03-18T05:50:33.784Z,68.73
2018-03-18T05:51:33.752Z,68.63
2018-03-18T05:52:33.466Z,68.73
2018-03-18T05:53:33.684Z,68.73
2018-03-18T05:54:33.642Z,68.26
2018-03-18T05:55:33.606Z,68.16
2018-03-18T05:56:33.569Z,68.26
2018-03-18T05:57:33.538Z,68.26
2018-03-18T05:58:33.502Z,68.16
2018-03-18T05:59:33.480Z,68.16
2018-03-18T06:00:33.438Z,68.26
2018-03-18T06:01:33.398Z,67.88
2018-03-18T06:02:33.364Z,68.16
2018-03-18T06:03:33.328Z,68.26
2018-03-18T06:04:33.295Z,68.16
2018-03-18T06:05:33.256Z,68.35
2018-03-18T06:06:33.227Z,68.16
2018-03-18T06:07:33.186Z,68.16
2018-03-18T06:08:32.903Z,68.16
2018-03-18T06:09:33.116Z,68.35
2018-03-18T06:10:33.091Z,68.44
2018-03-18T06:11:33.042Z,68.35
2018-03-18T06:12:33.146Z,68.35
2018-03-18T06:13:32.976Z,68.54
2018-03-18T06:14:32.942Z,68.54
2018-03-18T06:15:32.904Z,68.16
2018-03-18T06:16:32.871Z,68.73
2018-03-18T06:17:32.836Z,68.44
2018-03-18T06:18:32.798Z,68.16
2018-03-18T06:19:32.767Z,68.26
2018-03-18T06:20:32.481Z,68.16
2018-03-18T06:21:32.692Z,68.16
2018-03-18T06:22:32.658Z,68.16
2018-03-18T06:23:32.624Z,68.44
2018-03-18T06:24:32.590Z,68.73
2018-03-18T06:25:32.551Z,68.16
2018-03-18T06:26:32.517Z,68.73
2018-03-18T06:27:32.487Z,68.54
2018-03-18T06:28:32.448Z,68.63
2018-03-18T06:29:32.413Z,68.63
2018-03-18T06:30:32.379Z,68.63
2018-03-18T06:31:32.368Z,68.26
2018-03-18T06:32:32.309Z,68.73
2018-03-18T06:33:32.278Z,68.73
2018-03-18T06:34:32.244Z,68.26
2018-03-18T06:35:32.217Z,68.63
2018-03-18T06:36:32.166Z,68.63
2018-03-18T06:37:32.181Z,68.16
2018-03-18T06:38:32.147Z,68.26
2018-03-18T06:39:32.064Z,68.26
2018-03-18T06:40:32.032Z,68.16
2018-03-18T06:41:31.750Z,68.35
2018-03-18T06:42:31.713Z,68.26
2018-03-18T06:43:31.923Z,68.35
2018-03-18T06:44:31.891Z,68.16
2018-03-18T06:45:31.856Z,67.97
2018-03-18T06:46:31.821Z,67.79
2018-03-18T06:47:31.793Z,67.79
2018-03-18T06:48:31.752Z,67.6
2018-03-18T06:49:31.717Z,67.69
2018-03-18T06:50:31.683Z,67.88
2018-03-18T06:51:31.650Z,67.97
2018-03-18T06:52:31.612Z,67.97
2018-03-18T06:53:31.581Z,67.6
2018-03-18T06:54:31.543Z,67.88
2018-03-18T06:55:31.509Z,67.88
2018-03-18T06:56:31.582Z,67.88
2018-03-18T06:57:31.440Z,68.16
2018-03-18T06:58:31.403Z,67.79
2018-03-18T06:59:31.407Z,67.32
2018-03-18T07:00:31.335Z,67.41
2018-03-18T07:01:31.302Z,67.32
2018-03-18T07:02:31.265Z,67.41
2018-03-18T07:03:31.229Z,67.69
2018-03-18T07:04:30.946Z,67.6
2018-03-18T07:05:31.160Z,67.32
2018-03-18T07:06:31.125Z,67.32
2018-03-18T07:07:31.095Z,67.41
2018-03-18T07:08:31.056Z,67.32
2018-03-18T07:09:31.025Z,67.32
2018-03-18T07:10:30.988Z,67.41
2018-03-18T07:11:30.954Z,67.32
2018-03-18T07:12:30.916Z,67.03
2018-03-18T07:13:30.883Z,67.03
2018-03-18T07:14:30.850Z,67.03
2018-03-18T07:15:30.568Z,67.13
2018-03-18T07:16:30.778Z,66.94
2018-03-18T07:17:30.751Z,66.84
2018-03-18T07:18:30.714Z,66.65
2018-03-18T07:19:30.678Z,66.75
2018-03-18T07:20:30.648Z,66.75
2018-03-18T07:21:30.360Z,66.84
2018-03-18T07:22:30.574Z,66.65
2018-03-18T07:23:30.299Z,66.47
2018-03-18T07:24:30.503Z,65.99
2018-03-18T07:25:30.534Z,66.09
2018-03-18T07:26:30.443Z,66.18
2018-03-18T07:27:30.402Z,66.28
2018-03-18T07:28:30.369Z,66.28
2018-03-18T07:29:30.336Z,66.09
2018-03-18T07:30:30.301Z,66.09
2018-03-18T07:31:30.264Z,66.28
2018-03-18T07:32:30.232Z,66.09
2018-03-18T07:33:30.197Z,66.18
2018-03-18T07:34:30.165Z,65.99
2018-03-18T07:35:30.131Z,65.9
2018-03-18T07:36:29.899Z,65.71
2018-03-18T07:37:30.061Z,65.61
2018-03-18T07:38:30.033Z,65.61
2018-03-18T07:39:29.997Z,65.71
2018-03-18T07:40:29.963Z,65.33
2018-03-18T07:41:29.678Z,65.52
2018-03-18T07:42:29.902Z,65.61
2018-03-18T07:43:29.866Z,65.61
2018-03-18T07:44:29.827Z,65.33
2018-03-18T07:45:29.794Z,65.23
2018-03-18T07:46:29.758Z,64.86
2018-03-18T07:47:29.477Z,65.23
2018-03-18T07:48:29.691Z,65.14
2018-03-18T07:49:29.661Z,65.14
2018-03-18T07:50:29.637Z,65.33
2018-03-18T07:51:29.593Z,65.05
2018-03-18T07:52:29.559Z,65.14
2018-03-18T07:53:29.525Z,65.05
2018-03-18T07:54:29.501Z,65.14
2018-03-18T07:55:29.458Z,65.14
2018-03-18T07:56:29.425Z,65.23
2018-03-18T07:57:29.145Z,65.23
2018-03-18T07:58:29.363Z,65.14
2018-03-18T07:59:29.079Z,65.05
2018-03-18T08:00:29.293Z,65.05
2018-03-18T08:01:29.261Z,65.23
2018-03-18T08:02:29.232Z,64.48
2018-03-18T08:03:29.200Z,64.29
2018-03-18T08:04:29.160Z,64.48
2018-03-18T08:05:29.145Z,64.58
2018-03-18T08:06:29.094Z,64.01
2018-03-18T08:07:29.173Z,63.73
2018-03-18T08:08:29.030Z,64.01
2018-03-18T08:09:28.748Z,64.01
2018-03-18T08:10:29.064Z,64.01
2018-03-18T08:11:28.954Z,64.11
2018-03-18T08:12:28.649Z,63.92
2018-03-18T08:13:29.159Z,64.01
2018-03-18T08:14:28.837Z,64.01
2018-03-18T08:15:28.807Z,63.45
2018-03-18T08:16:28.766Z,63.54
2018-03-18T08:17:28.734Z,63.45
2018-03-18T08:18:28.698Z,63.45
2018-03-18T08:19:28.673Z,63.54
2018-03-18T08:20:28.634Z,63.57
2018-03-18T08:21:28.602Z,63
2018-03-18T08:22:28.569Z,62.81
2018-03-18T08:23:28.536Z,62.81
2018-03-18T08:24:28.255Z,62.62
2018-03-18T08:25:28.469Z,63.19
2018-03-18T08:26:28.445Z,62.5
2018-03-18T08:27:28.406Z,62.4
2018-03-18T08:28:28.375Z,62.5
2018-03-18T08:29:28.352Z,62.34
2018-03-18T08:30:28.312Z,62.31
2018-03-18T08:31:28.278Z,62.69
2018-03-18T08:32:28.247Z,62.31
2018-03-18T08:33:28.224Z,62.62
2018-03-18T08:34:27.933Z,62.44
2018-03-18T08:35:28.150Z,62.81
2018-03-18T08:36:28.115Z,62.81
2018-03-18T08:37:28.084Z,62.62
2018-03-18T08:38:28.054Z,63.19
2018-03-18T08:39:27.773Z,62.62
2018-03-18T08:40:27.989Z,62.44
2018-03-18T08:41:28.002Z,61.96
2018-03-18T08:42:27.926Z,62.53
2018-03-18T08:43:27.644Z,62.06
2018-03-18T08:44:27.612Z,61.87
2018-03-18T08:45:27.830Z,61.58
2018-03-18T08:46:27.549Z,61.49
2018-03-18T08:47:27.768Z,61.77
2018-03-18T08:48:27.734Z,61.68
2018-03-18T08:49:27.709Z,61.3
2018-03-18T08:50:27.669Z,61.02
2018-03-18T08:51:27.637Z,61.21
2018-03-18T08:52:27.780Z,61.02
2018-03-18T08:53:27.579Z,61.21
2018-03-18T08:54:27.544Z,61.02
2018-03-18T08:55:27.511Z,60.83
2018-03-18T08:56:27.476Z,60.93
2018-03-18T08:57:27.445Z,60.93
2018-03-18T08:58:27.414Z,61.11
2018-03-18T08:59:27.135Z,60.83
2018-03-18T09:00:27.349Z,60.83
2018-03-18T09:01:27.321Z,60.17
2018-03-18T09:02:27.288Z,59.98
2018-03-18T09:03:27.275Z,60.17
2018-03-18T09:04:27.227Z,59.98
2018-03-18T09:05:27.199Z,59.98
2018-03-18T09:06:27.160Z,60.17
2018-03-18T09:07:27.136Z,60.17
2018-03-18T09:08:27.100Z,59.89
2018-03-18T09:09:27.064Z,59.7
2018-03-18T09:10:27.041Z,59.6
2018-03-18T09:11:27.007Z,59.32
2018-03-18T09:12:26.971Z,59.22
2018-03-18T09:13:26.942Z,59.22
2018-03-18T09:14:26.917Z,59.03
2018-03-18T09:15:26.963Z,59.22
2018-03-18T09:16:26.599Z,59.41
2018-03-18T09:17:26.821Z,59.22
2018-03-18T09:18:26.786Z,59.41
2018-03-18T09:19:26.508Z,59.13
2018-03-18T09:20:26.726Z,59.22
2018-03-18T09:21:26.695Z,58.78
2018-03-18T09:22:26.665Z,58.78
2018-03-18T09:23:26.635Z,58.59
2018-03-18T09:24:26.353Z,59.16
2018-03-18T09:25:26.573Z,58.31
2018-03-18T09:26:26.543Z,58.12
2018-03-18T09:27:26.510Z,57.55
2018-03-18T09:28:26.517Z,57.65
2018-03-18T09:29:26.456Z,57.55
2018-03-18T09:30:26.418Z,57.65
2018-03-18T09:31:26.387Z,57.65
2018-03-18T09:32:26.115Z,58.4
2018-03-18T09:33:26.331Z,58.5
2018-03-18T09:34:26.298Z,58.12
2018-03-18T09:35:26.267Z,58.03
2018-03-18T09:36:26.237Z,58.47
2018-03-18T09:37:26.206Z,58.65
2018-03-18T09:38:26.193Z,58.47
2018-03-18T09:39:26.146Z,58.28
2018-03-18T09:40:26.119Z,59.13
2018-03-18T09:41:26.083Z,58.84
2018-03-18T09:42:26.052Z,59.13
2018-03-18T09:43:26.018Z,59.13
2018-03-18T09:44:25.992Z,59.41
2018-03-18T09:45:25.954Z,59.13
2018-03-18T09:46:25.926Z,59.51
2018-03-18T09:47:25.896Z,59.6
2018-03-18T09:48:25.873Z,59.6
2018-03-18T09:49:25.827Z,59.79
2018-03-18T09:50:25.801Z,59.98
2018-03-18T09:51:25.519Z,60.46
2018-03-18T09:52:25.741Z,60.64
2018-03-18T09:53:25.750Z,60.55
2018-03-18T09:54:25.431Z,60.83
2018-03-18T09:55:25.694Z,60.64
2018-03-18T09:56:25.762Z,60.55
2018-03-18T09:57:25.359Z,60.55
2018-03-18T09:58:25.826Z,60.46
2018-03-18T09:59:25.515Z,60.08
2018-03-18T10:00:25.483Z,60.27
2018-03-18T10:01:25.446Z,59.79
2018-03-18T10:02:25.420Z,60.17
2018-03-18T10:03:25.386Z,60.17
2018-03-18T10:04:25.104Z,59.98
2018-03-18T10:05:25.322Z,59.98
2018-03-18T10:06:25.289Z,59.98
2018-03-18T10:07:25.258Z,59.79
2018-03-18T10:08:25.226Z,59.79
2018-03-18T10:09:25.193Z,59.6
2018-03-18T10:10:24.915Z,59.13
2018-03-18T10:11:25.132Z,58.94
2018-03-18T10:12:25.101Z,58.84
2018-03-18T10:13:25.071Z,58.47
2018-03-18T10:14:25.038Z,58
2018-03-18T10:15:25.011Z,57.24
2018-03-18T10:16:24.978Z,57.93
2018-03-18T10:17:24.942Z,57.27
2018-03-18T10:18:24.929Z,56.89
2018-03-18T10:19:24.886Z,56.96
2018-03-18T10:20:25.035Z,57.18
2018-03-18T10:21:27.560Z,56.89
2018-03-18T10:22:24.787Z,56.89
2018-03-18T10:23:24.759Z,56.99
2018-03-18T10:24:24.726Z,56.7
2018-03-18T10:25:24.692Z,56.7
2018-03-18T10:26:24.664Z,57.08
2018-03-18T10:27:24.631Z,56.61
2018-03-18T10:28:24.726Z,57.08
2018-03-18T10:29:24.764Z,56.7
2018-03-18T10:30:24.543Z,57.27
2018-03-18T10:31:24.510Z,57.18
2018-03-18T10:32:24.481Z,56.89
2018-03-18T10:33:24.453Z,57.18
2018-03-18T10:34:24.415Z,56.99
2018-03-18T10:35:24.392Z,57.27
2018-03-18T10:36:24.366Z,56.89
2018-03-18T10:37:24.475Z,57.08
2018-03-18T10:38:24.292Z,57.37
2018-03-18T10:39:24.266Z,57.08
2018-03-18T10:40:24.274Z,57.37
2018-03-18T10:41:24.206Z,57.27
2018-03-18T10:42:23.926Z,57.08
2018-03-18T10:43:24.144Z,57.08
2018-03-18T10:44:24.117Z,57.27
2018-03-18T10:45:23.832Z,56.99
2018-03-18T10:46:24.052Z,57.27
2018-03-18T10:47:24.018Z,56.99
2018-03-18T10:48:23.987Z,57.18
2018-03-18T10:49:23.959Z,56.61
2018-03-18T10:50:23.928Z,56.61
2018-03-18T10:51:23.900Z,56.89
2018-03-18T10:52:23.867Z,56.61
2018-03-18T10:53:24.071Z,56.8
2018-03-18T10:54:24.510Z,56.7
2018-03-18T10:55:23.780Z,56.7
2018-03-18T10:56:23.749Z,56.7
2018-03-18T10:57:23.720Z,56.7
2018-03-18T10:58:23.440Z,56.8
2018-03-18T10:59:23.705Z,56.8
2018-03-18T11:00:23.627Z,56.42
2018-03-18T11:01:23.594Z,56.42
2018-03-18T11:02:23.570Z,56.32
2018-03-18T11:03:23.534Z,56.61
2018-03-18T11:04:23.508Z,56.51
2018-03-18T11:05:23.472Z,56.23
2018-03-18T11:06:23.440Z,56.23
2018-03-18T11:07:23.164Z,56.42
2018-03-18T11:08:23.384Z,56.51
2018-03-18T11:09:23.104Z,56.32
2018-03-18T11:10:23.332Z,56.7
2018-03-18T11:11:23.293Z,55.85
2018-03-18T11:12:23.282Z,55.57
2018-03-18T11:13:23.249Z,55.88
2018-03-18T11:14:22.950Z,55.5
2018-03-18T11:15:23.181Z,55.22
2018-03-18T11:16:23.194Z,54.74
2018-03-18T11:17:23.106Z,55.03
2018-03-18T11:18:23.088Z,54.46
2018-03-18T11:19:23.048Z,54.46
2018-03-18T11:20:23.021Z,54.74
2018-03-18T11:21:22.987Z,54.74
2018-03-18T11:22:22.959Z,54.84
2018-03-18T11:23:22.930Z,53.99
2018-03-18T11:24:22.907Z,53.7
2018-03-18T11:25:22.875Z,53.99
2018-03-18T11:26:22.844Z,53.61
2018-03-18T11:27:22.566Z,53.7
2018-03-18T11:28:22.781Z,53.61
2018-03-18T11:29:22.754Z,53.7
2018-03-18T11:30:22.723Z,53.05
2018-03-18T11:31:22.692Z,53.14
2018-03-18T11:32:22.668Z,52.86
2018-03-18T11:33:22.637Z,52.86
2018-03-18T11:34:22.608Z,52.67
2018-03-18T11:35:22.579Z,52.38
2018-03-18T11:36:22.612Z,52.38
2018-03-18T11:37:22.530Z,52.69
2018-03-18T11:38:22.576Z,52.5
2018-03-18T11:39:22.459Z,52.31
2018-03-18T11:40:22.565Z,52.41
2018-03-18T11:41:22.475Z,52.22
2018-03-18T11:42:22.430Z,52.12
2018-03-18T11:43:22.440Z,51.75
2018-03-18T11:44:22.381Z,51.46
2018-03-18T11:45:22.382Z,51.65
2018-03-18T11:46:22.264Z,51.37
2018-03-18T11:47:22.232Z,51.46
2018-03-18T11:48:21.953Z,51.84
2018-03-18T11:49:22.183Z,51.93
2018-03-18T11:50:22.142Z,51.91
2018-03-18T11:51:22.115Z,52.6
2018-03-18T11:52:22.084Z,52.31
2018-03-18T11:53:22.057Z,52.41
2018-03-18T11:54:22.101Z,52.12
2018-03-18T11:55:21.999Z,51.84
2018-03-18T11:56:21.968Z,51.93
2018-03-18T11:57:21.941Z,51.93
2018-03-18T11:58:21.910Z,52.03
2018-03-18T11:59:21.638Z,52
2018-03-18T12:00:21.858Z,51.93
2018-03-18T12:01:21.576Z,51.62
2018-03-18T12:02:21.804Z,51.43
2018-03-18T12:03:21.768Z,52.1
2018-03-18T12:04:21.738Z,52
2018-03-18T12:05:21.714Z,52.19
2018-03-18T12:06:21.679Z,52.38
2018-03-18T12:07:21.654Z,52.48
2018-03-18T12:08:21.625Z,52.38
2018-03-18T12:09:21.595Z,52.1
2018-03-18T12:10:21.570Z,52.29
2018-03-18T12:11:21.536Z,51.91
2018-03-18T12:12:21.505Z,52.19
2018-03-18T12:13:21.473Z,52.38
2018-03-18T12:14:21.443Z,52.29
2018-03-18T12:15:21.416Z,52.48
2018-03-18T12:16:21.138Z,52.29
2018-03-18T12:17:21.358Z,52.38
2018-03-18T12:18:21.391Z,52.38
2018-03-18T12:19:21.299Z,52.38
2018-03-18T12:20:21.273Z,52.48
2018-03-18T12:21:21.239Z,52.48
2018-03-18T12:22:20.960Z,52.48
2018-03-18T12:23:21.184Z,52.48
2018-03-18T12:24:20.902Z,52.67
2018-03-18T12:25:20.871Z,52.57
2018-03-18T12:26:21.088Z,52.38
2018-03-18T12:27:21.065Z,52.38
2018-03-18T12:28:21.027Z,52.67
2018-03-18T12:29:20.999Z,52.5
2018-03-18T12:30:20.970Z,52.41
2018-03-18T12:31:20.941Z,51.84
2018-03-18T12:32:20.920Z,51.93
2018-03-18T12:33:20.633Z,52.6
2018-03-18T12:34:20.855Z,52.6
2018-03-18T12:35:20.817Z,52.5
2018-03-18T12:36:20.793Z,52.12
2018-03-18T12:37:20.760Z,52.31
2018-03-18T12:38:20.736Z,52.31
2018-03-18T12:39:20.698Z,52.12
2018-03-18T12:40:20.670Z,51.93
2018-03-18T12:41:20.641Z,51.75
2018-03-18T12:42:20.614Z,52.22
2018-03-18T12:43:20.578Z,51.37
2018-03-18T12:44:20.551Z,51.46
2018-03-18T12:45:20.520Z,51.46
2018-03-18T12:46:20.491Z,51.18
2018-03-18T12:47:20.210Z,51.37
2018-03-18T12:48:20.497Z,51.65
2018-03-18T12:49:20.399Z,51.28
2018-03-18T12:50:20.374Z,51.46
2018-03-18T12:51:20.338Z,51.65
2018-03-18T12:52:20.308Z,51.18
2018-03-18T12:53:20.282Z,50.92
2018-03-18T12:54:20.254Z,50.99
2018-03-18T12:55:20.295Z,50.54